Time;durP1;ratioP1;P1;durP2;ratioP2;P2;SDS_P1;SDS_P2;PMS_P1;PMS_P2;Temp;Humidity;BMP_temperature;BMP_pressure;BME280_temperature;BME280_humidity;BME280_pressure;Samples;Min_cycle;Max_cycle;Signal;HPM_P1;HPM_P2
2024/03/03 00:01:06;;;;;;;28.20;25.55;;;8.60;99.90;;;;;;4974001;28;20069;-71
2024/03/03 00:03:34;;;;;;;27.60;25.10;;;8.70;99.90;;;;;;4970009;28;20054;-69
2024/03/03 00:06:05;;;;;;;28.45;25.73;;;8.70;99.90;;;;;;4975312;28;20081;-70
2024/03/03 00:08:32;;;;;;;28.65;25.85;;;8.70;99.90;;;;;;4974921;28;20121;-70
2024/03/03 00:10:59;;;;;;;27.27;24.83;;;8.70;99.90;;;;;;4957968;28;20551;-71
2024/03/03 00:13:28;;;;;;;26.63;24.15;;;8.70;99.90;;;;;;4972089;28;20054;-70
2024/03/03 00:15:55;;;;;;;27.38;24.88;;;8.70;99.90;;;;;;4974482;28;20038;-69
2024/03/03 00:18:23;;;;;;;28.98;26.38;;;8.70;99.90;;;;;;4976919;28;20043;-70
2024/03/03 00:20:50;;;;;;;27.77;25.10;;;8.80;99.90;;;;;;4969205;28;20043;-71
2024/03/03 00:23:17;;;;;;;27.83;25.33;;;8.70;99.90;;;;;;4975356;28;20061;-71
2024/03/03 00:25:44;;;;;;;26.85;24.35;;;8.70;99.90;;;;;;4973118;28;21073;-70
2024/03/03 00:28:11;;;;;;;27.85;25.02;;;8.80;99.90;;;;;;4975280;28;20038;-69
2024/03/03 00:30:38;;;;;;;28.08;25.25;;;8.80;99.90;;;;;;4972392;28;20035;-71
2024/03/03 00:33:06;;;;;;;28.38;25.52;;;8.70;99.90;;;;;;4955955;28;20129;-69
2024/03/03 00:35:33;;;;;;;28.83;26.10;;;8.70;99.90;;;;;;4968165;28;20054;-70
2024/03/03 00:38:00;;;;;;;26.75;24.33;;;8.70;99.90;;;;;;4961560;28;20216;-71
2024/03/03 00:40:28;;;;;;;28.15;25.52;;;8.70;99.90;;;;;;4973080;28;20043;-70
2024/03/03 00:42:56;;;;;;;27.52;24.90;;;8.70;99.90;;;;;;4956345;28;20110;-70
2024/03/03 00:45:23;;;;;;;29.17;26.23;;;8.70;99.90;;;;;;4955153;28;20039;-70
2024/03/03 00:47:50;;;;;;;29.60;26.65;;;8.60;99.90;;;;;;4949607;28;20042;-70
2024/03/03 00:50:17;;;;;;;28.15;25.48;;;8.60;99.90;;;;;;4971171;28;20494;-71
2024/03/03 00:52:44;;;;;;;28.13;25.38;;;8.50;99.90;;;;;;4971258;28;20045;-70
2024/03/03 00:55:12;;;;;;;27.83;25.33;;;8.50;99.90;;;;;;4970591;28;20069;-70
2024/03/03 00:57:39;;;;;;;27.77;25.05;;;8.40;99.90;;;;;;4971141;28;20542;-71
2024/03/03 01:00:08;;;;;;;26.48;24.08;;;8.40;99.90;;;;;;4974887;28;20050;-70
2024/03/03 01:02:35;;;;;;;27.55;25.02;;;8.30;99.90;;;;;;4973577;28;20053;-70
2024/03/03 01:05:03;;;;;;;27.30;24.70;;;8.30;99.90;;;;;;4968391;28;20553;-70
2024/03/03 01:07:30;;;;;;;26.20;23.95;;;8.30;99.90;;;;;;4971071;28;20069;-69
2024/03/03 01:09:57;;;;;;;27.77;25.10;;;8.30;99.90;;;;;;4972239;28;20034;-69
2024/03/03 01:12:24;;;;;;;26.08;23.67;;;8.30;99.90;;;;;;4974249;28;20133;-71
2024/03/03 01:14:51;;;;;;;29.02;26.27;;;8.30;99.90;;;;;;4971776;28;20048;-70
2024/03/03 01:17:18;;;;;;;26.73;24.42;;;8.30;99.90;;;;;;4969965;28;20977;-69
2024/03/03 01:19:45;;;;;;;25.52;23.13;;;8.30;99.90;;;;;;4967690;28;20053;-69
2024/03/03 01:22:13;;;;;;;25.75;23.55;;;8.30;99.90;;;;;;4957667;28;20054;-70
2024/03/03 01:24:40;;;;;;;27.48;24.80;;;8.40;99.90;;;;;;4972958;28;20050;-70
2024/03/03 01:27:08;;;;;;;27.40;24.83;;;8.30;99.90;;;;;;4966247;28;20046;-69
2024/03/03 01:29:35;;;;;;;28.00;25.50;;;8.30;99.90;;;;;;4975141;28;20418;-70
2024/03/03 01:32:03;;;;;;;27.70;25.10;;;8.30;99.90;;;;;;4973360;28;20450;-71
2024/03/03 01:34:30;;;;;;;27.23;24.58;;;8.30;99.90;;;;;;4968936;28;20042;-69
2024/03/03 01:36:58;;;;;;;28.38;25.75;;;8.30;99.90;;;;;;4971263;28;20050;-71
2024/03/03 01:39:25;;;;;;;28.02;25.33;;;8.30;99.90;;;;;;4976656;28;20062;-70
2024/03/03 01:41:52;;;;;;;27.33;24.88;;;8.30;99.90;;;;;;4968646;28;20050;-69
2024/03/03 01:44:19;;;;;;;28.55;25.65;;;8.30;99.90;;;;;;4978114;28;20050;-70
2024/03/03 01:46:47;;;;;;;27.27;24.83;;;8.40;99.90;;;;;;4973702;28;20050;-70
2024/03/03 01:49:15;;;;;;;27.73;25.27;;;8.20;99.90;;;;;;4973597;28;20129;-70
2024/03/03 01:51:45;;;;;;;27.75;25.25;;;8.20;99.90;;;;;;4979296;28;20042;-70
2024/03/03 01:54:12;;;;;;;28.65;26.05;;;8.20;99.90;;;;;;4975007;28;20701;-70
2024/03/03 01:56:43;;;;;;;27.58;25.17;;;8.00;99.90;;;;;;4972982;28;20050;-71
2024/03/03 01:59:11;;;;;;;28.70;25.88;;;7.90;99.90;;;;;;4970630;28;20042;-69
2024/03/03 02:01:38;;;;;;;28.05;25.20;;;8.00;99.90;;;;;;4972228;28;20053;-71
2024/03/03 02:04:11;;;;;;;29.08;26.25;;;7.80;99.90;;;;;;4968269;28;20063;-70
2024/03/03 02:06:41;;;;;;;28.13;25.52;;;7.80;99.90;;;;;;4965996;28;20056;-69
2024/03/03 02:09:10;;;;;;;28.17;25.42;;;7.80;99.90;;;;;;4970905;28;20059;-69
2024/03/03 02:11:38;;;;;;;28.05;25.10;;;7.80;99.90;;;;;;4968900;28;20137;-70
2024/03/03 02:14:06;;;;;;;29.33;26.20;;;7.80;99.90;;;;;;4971743;28;20042;-71
2024/03/03 02:16:33;;;;;;;28.50;25.65;;;7.80;99.90;;;;;;4977286;28;20089;-69
2024/03/03 02:19:01;;;;;;;29.92;26.85;;;7.70;99.90;;;;;;4970897;28;20062;-70
2024/03/03 02:21:28;;;;;;;27.58;25.08;;;7.60;99.90;;;;;;4971652;28;20129;-70
2024/03/03 02:23:55;;;;;;;28.60;25.50;;;7.60;99.90;;;;;;4969992;28;20610;-71
2024/03/03 02:26:25;;;;;;;29.48;25.88;;;7.60;99.90;;;;;;4969721;28;20038;-70
2024/03/03 02:28:53;;;;;;;28.98;25.98;;;7.50;99.90;;;;;;4966634;28;20050;-69
2024/03/03 02:31:21;;;;;;;28.25;25.45;;;7.50;99.90;;;;;;4994302;28;20675;-70
2024/03/03 02:33:48;;;;;;;28.98;26.00;;;7.40;99.90;;;;;;4966402;28;20065;-69
2024/03/03 02:36:16;;;;;;;28.58;25.73;;;7.40;99.90;;;;;;4969149;28;20418;-71
2024/03/03 02:38:47;;;;;;;28.13;25.35;;;7.40;99.90;;;;;;4969602;28;20061;-70
2024/03/03 02:41:14;;;;;;;29.23;26.35;;;7.30;99.90;;;;;;4972393;28;20394;-71
2024/03/03 02:43:42;;;;;;;29.77;26.67;;;7.30;99.90;;;;;;4959053;28;20131;-69
2024/03/03 02:46:10;;;;;;;29.65;26.63;;;7.40;99.90;;;;;;4972888;28;20065;-71
2024/03/03 02:48:37;;;;;;;28.90;26.15;;;7.30;99.90;;;;;;4970563;28;20292;-70
2024/03/03 02:51:04;;;;;;;29.70;26.70;;;7.30;99.90;;;;;;4955946;28;20073;-70
2024/03/03 02:53:31;;;;;;;28.63;25.63;;;7.30;99.90;;;;;;4976055;28;20053;-70
2024/03/03 02:55:58;;;;;;;29.75;26.65;;;7.30;99.90;;;;;;4970563;28;20057;-70
2024/03/03 02:58:27;;;;;;;29.08;26.08;;;7.30;99.90;;;;;;4981262;28;20145;-70
2024/03/03 03:00:55;;;;;;;30.17;26.98;;;7.30;99.90;;;;;;4972013;28;20074;-69
2024/03/03 03:03:23;;;;;;;28.50;25.38;;;7.30;99.90;;;;;;4982606;28;20045;-70
2024/03/03 03:05:50;;;;;;;30.30;27.05;;;7.40;99.90;;;;;;4967086;28;20469;-70
2024/03/03 03:08:17;;;;;;;29.52;26.52;;;7.40;99.90;;;;;;4972059;28;20661;-69
2024/03/03 03:10:44;;;;;;;28.77;25.83;;;7.40;99.90;;;;;;4957923;28;20524;-70
2024/03/03 03:13:12;;;;;;;29.33;25.48;;;7.40;99.90;;;;;;4969122;28;20142;-70
2024/03/03 03:15:39;;;;;;;29.65;26.52;;;7.50;99.90;;;;;;4971325;28;20058;-69
2024/03/03 03:18:06;;;;;;;29.08;26.08;;;7.50;99.90;;;;;;4974562;28;20046;-70
2024/03/03 03:20:34;;;;;;;28.88;25.95;;;7.50;99.90;;;;;;4975344;28;20055;-69
2024/03/03 03:23:02;;;;;;;27.95;25.17;;;7.40;99.90;;;;;;4974873;28;20514;-69
2024/03/03 03:25:29;;;;;;;29.63;26.60;;;7.50;99.90;;;;;;4976500;28;20053;-70
2024/03/03 03:27:57;;;;;;;28.17;25.25;;;7.50;99.90;;;;;;4975129;28;20042;-69
2024/03/03 03:30:24;;;;;;;28.80;25.83;;;7.50;99.90;;;;;;4980997;28;20097;-70
2024/03/03 03:32:51;;;;;;;29.23;26.10;;;7.50;99.90;;;;;;4976429;28;20066;-70
2024/03/03 03:35:18;;;;;;;29.45;26.30;;;7.50;99.90;;;;;;4963409;28;20811;-69
2024/03/03 03:37:45;;;;;;;29.55;26.52;;;7.50;99.90;;;;;;4972460;28;20442;-70
2024/03/03 03:40:13;;;;;;;32.17;27.90;;;7.50;99.90;;;;;;4971043;28;21269;-70
2024/03/03 03:42:41;;;;;;;32.35;28.10;;;7.40;99.90;;;;;;4971451;28;20050;-69
2024/03/03 03:45:08;;;;;;;31.52;28.10;;;7.30;99.90;;;;;;4973518;28;20061;-70
2024/03/03 03:47:35;;;;;;;32.92;29.25;;;7.20;99.90;;;;;;4984167;28;20045;-70
2024/03/03 03:50:03;;;;;;;32.63;27.95;;;7.20;99.90;;;;;;4975536;28;20124;-70
2024/03/03 03:52:30;;;;;;;35.65;28.45;;;7.20;99.90;;;;;;4974545;28;20041;-71
2024/03/03 03:54:57;;;;;;;32.60;27.75;;;7.20;99.90;;;;;;4974839;28;20502;-69
2024/03/03 03:57:25;;;;;;;31.95;28.08;;;7.20;99.90;;;;;;4979716;28;20074;-70
2024/03/03 03:59:52;;;;;;;32.63;27.17;;;7.20;99.90;;;;;;4971763;28;20144;-71
2024/03/03 04:02:19;;;;;;;31.02;27.65;;;7.20;99.90;;;;;;4966265;28;20551;-70
2024/03/03 04:04:45;;;;;;;33.45;27.27;;;7.20;99.90;;;;;;4973306;28;20030;-69
2024/03/03 04:07:12;;;;;;;33.47;28.00;;;7.10;99.90;;;;;;4985568;28;20065;-69
2024/03/03 04:09:40;;;;;;;36.40;28.00;;;7.10;99.90;;;;;;4988127;28;20053;-69
2024/03/03 04:12:08;;;;;;;32.85;27.27;;;7.10;99.90;;;;;;4970923;28;20133;-70
2024/03/03 04:14:35;;;;;;;33.65;28.13;;;7.10;99.90;;;;;;4977062;28;20041;-69
2024/03/03 04:17:02;;;;;;;36.03;29.88;;;7.10;99.90;;;;;;4973688;28;20065;-69
2024/03/03 04:19:29;;;;;;;36.25;28.92;;;7.10;99.90;;;;;;4973473;28;20057;-69
2024/03/03 04:21:56;;;;;;;32.90;28.23;;;7.20;99.90;;;;;;4967228;28;20543;-68
2024/03/03 04:24:23;;;;;;;31.75;27.20;;;7.10;99.90;;;;;;4974343;28;20051;-71
2024/03/03 04:26:50;;;;;;;33.97;28.98;;;7.20;99.90;;;;;;4977662;28;20081;-68
2024/03/03 04:29:17;;;;;;;33.40;28.63;;;7.10;99.90;;;;;;4978672;28;20035;-70
2024/03/03 04:31:44;;;;;;;32.47;28.20;;;6.90;99.90;;;;;;4968470;28;20068;-68
2024/03/03 04:34:12;;;;;;;36.53;27.48;;;6.90;99.90;;;;;;4971633;28;20117;-69
2024/03/03 04:36:45;;;;;;;31.92;26.55;;;6.90;99.90;;;;;;4979967;28;20141;-70
2024/03/03 04:39:13;;;;;;;33.23;27.03;;;6.90;99.90;;;;;;4973499;28;20539;-69
2024/03/03 04:41:40;;;;;;;37.13;27.58;;;6.80;99.90;;;;;;4980560;28;20386;-69
2024/03/03 04:44:07;;;;;;;36.08;27.17;;;6.80;99.90;;;;;;4968329;28;20104;-69
2024/03/03 04:46:34;;;;;;;34.65;28.13;;;6.80;99.90;;;;;;4975651;28;20049;-69
2024/03/03 04:49:01;;;;;;;37.10;28.10;;;6.80;99.90;;;;;;4960169;28;20046;-70
2024/03/03 04:51:29;;;;;;;36.67;28.70;;;6.80;99.90;;;;;;4973595;28;20521;-68
2024/03/03 04:53:56;;;;;;;32.10;26.77;;;6.80;99.90;;;;;;4972693;28;20043;-68
2024/03/03 04:56:27;;;;;;;35.00;26.17;;;6.80;99.90;;;;;;4955404;28;20963;-70
2024/03/03 04:58:54;;;;;;;34.38;26.25;;;6.70;99.90;;;;;;4972453;28;20490;-70
2024/03/03 05:01:22;;;;;;;31.00;25.88;;;6.70;99.90;;;;;;4973425;28;20035;-70
2024/03/03 05:03:49;;;;;;;35.67;27.92;;;6.70;99.90;;;;;;4971362;28;20046;-68
2024/03/03 05:06:16;;;;;;;39.20;28.40;;;6.60;99.90;;;;;;4966857;28;20056;-70
2024/03/03 05:08:43;;;;;;;37.20;28.33;;;6.60;99.90;;;;;;4973703;28;20144;-69
2024/03/03 05:11:10;;;;;;;40.45;27.58;;;6.40;99.90;;;;;;4971172;28;20046;-70
2024/03/03 05:13:38;;;;;;;39.05;27.48;;;6.30;99.90;;;;;;4981359;28;20080;-69
2024/03/03 05:16:06;;;;;;;40.28;29.65;;;6.30;99.90;;;;;;4970241;28;20730;-70
2024/03/03 05:18:33;;;;;;;38.55;29.70;;;6.20;99.90;;;;;;4987079;28;20047;-70
2024/03/03 05:21:01;;;;;;;33.50;27.15;;;6.20;99.90;;;;;;4951003;28;20042;-70
2024/03/03 05:23:28;;;;;;;39.90;29.25;;;6.10;99.90;;;;;;4975938;28;20042;-71
2024/03/03 05:25:55;;;;;;;40.70;28.05;;;6.10;99.90;;;;;;4977203;28;20534;-70
2024/03/03 05:28:23;;;;;;;40.60;27.88;;;6.10;99.90;;;;;;4978339;28;20045;-69
2024/03/03 05:30:52;;;;;;;32.83;26.48;;;6.10;99.90;;;;;;4960221;28;20868;-67
2024/03/03 05:33:19;;;;;;;35.17;25.67;;;6.00;99.90;;;;;;4974508;28;20137;-69
2024/03/03 05:35:46;;;;;;;42.80;27.55;;;6.00;99.90;;;;;;4971589;28;20400;-69
2024/03/03 05:38:15;;;;;;;35.83;26.27;;;6.10;99.90;;;;;;4961743;28;20173;-69
2024/03/03 05:40:42;;;;;;;43.83;27.95;;;6.30;99.90;;;;;;4974332;28;20048;-69
2024/03/03 05:43:09;;;;;;;41.67;27.75;;;6.40;99.90;;;;;;4967941;28;20042;-70
2024/03/03 05:45:37;;;;;;;37.25;27.40;;;6.40;99.90;;;;;;4968481;28;20688;-70
2024/03/03 05:48:04;;;;;;;41.55;27.20;;;6.40;99.90;;;;;;4970175;28;20054;-69
2024/03/03 05:50:32;;;;;;;34.20;26.40;;;6.40;99.90;;;;;;4973473;28;20038;-69
2024/03/03 05:52:59;;;;;;;37.60;27.50;;;6.40;99.90;;;;;;4972274;28;20073;-70
2024/03/03 05:55:26;;;;;;;35.42;27.48;;;6.20;99.90;;;;;;4976677;28;21772;-70
2024/03/03 05:57:54;;;;;;;40.17;28.70;;;6.20;99.90;;;;;;4963372;28;20059;-68
2024/03/03 06:00:21;;;;;;;40.78;29.23;;;6.10;99.90;;;;;;4950125;28;20047;-69
2024/03/03 06:02:49;;;;;;;43.65;28.83;;;6.10;99.90;;;;;;4971925;28;20078;-70
2024/03/03 06:05:17;;;;;;;39.90;29.20;;;6.10;99.90;;;;;;4949190;28;20054;-70
2024/03/03 06:07:44;;;;;;;39.15;28.50;;;6.00;99.90;;;;;;4969219;28;20102;-69
2024/03/03 06:10:11;;;;;;;45.75;29.05;;;5.90;99.90;;;;;;4966607;28;20077;-70
2024/03/03 06:12:39;;;;;;;43.05;29.00;;;5.90;99.90;;;;;;4975921;28;20042;-69
2024/03/03 06:15:06;;;;;;;42.22;29.42;;;5.90;99.90;;;;;;4970895;28;20596;-70
2024/03/03 06:17:33;;;;;;;42.25;28.08;;;5.90;99.90;;;;;;4972272;28;20124;-69
2024/03/03 06:20:02;;;;;;;45.35;29.50;;;5.90;99.90;;;;;;4968941;28;20034;-69
2024/03/03 06:22:29;;;;;;;43.55;29.00;;;5.90;99.90;;;;;;4960564;28;20152;-70
2024/03/03 06:24:56;;;;;;;45.47;30.70;;;5.90;99.90;;;;;;4972358;28;20050;-69
2024/03/03 06:27:23;;;;;;;43.78;30.67;;;5.80;99.90;;;;;;4985758;28;20073;-70
2024/03/03 06:29:50;;;;;;;46.38;31.33;;;5.80;99.90;;;;;;4977656;28;20050;-70
2024/03/03 06:32:17;;;;;;;39.50;28.50;;;5.80;99.90;;;;;;4973566;28;20049;-70
2024/03/03 06:34:46;;;;;;;49.75;29.48;;;5.90;99.90;;;;;;4978130;28;20038;-70
2024/03/03 06:37:15;;;;;;;39.85;28.10;;;6.00;99.90;;;;;;4970464;28;20132;-70
2024/03/03 06:39:44;;;;;;;38.55;27.85;;;6.10;99.90;;;;;;4978976;28;20710;-70
2024/03/03 06:42:11;;;;;;;43.97;31.15;;;6.20;99.90;;;;;;4967661;28;20120;-70
2024/03/03 06:44:42;;;;;;;41.75;29.42;;;6.20;99.90;;;;;;4993597;28;20107;-68
2024/03/03 06:47:09;;;;;;;44.35;29.80;;;6.30;99.90;;;;;;4974849;28;20791;-68
2024/03/03 06:49:36;;;;;;;43.53;29.85;;;6.30;99.90;;;;;;4992955;28;20543;-70
2024/03/03 06:52:03;;;;;;;41.78;30.80;;;6.30;99.90;;;;;;4968063;28;20043;-68
2024/03/03 06:54:30;;;;;;;43.35;30.75;;;6.30;99.90;;;;;;4956006;28;20051;-70
2024/03/03 06:56:58;;;;;;;43.83;30.10;;;6.30;99.90;;;;;;4977522;28;20042;-68
2024/03/03 06:59:26;;;;;;;47.15;31.88;;;6.30;99.90;;;;;;4951949;28;20058;-69
2024/03/03 07:01:54;;;;;;;48.03;32.50;;;6.30;99.90;;;;;;4974165;28;20042;-69
2024/03/03 07:04:24;;;;;;;43.83;31.83;;;6.40;99.90;;;;;;4968785;28;20048;-70
2024/03/03 07:06:52;;;;;;;46.03;30.08;;;6.30;99.90;;;;;;4975370;28;20582;-71
2024/03/03 07:09:23;;;;;;;57.15;32.58;;;6.30;99.90;;;;;;4971465;28;20531;-69
2024/03/03 07:11:51;;;;;;;52.72;34.85;;;6.30;99.90;;;;;;4977486;28;20054;-71
2024/03/03 07:14:19;;;;;;;50.83;33.50;;;6.40;99.90;;;;;;4968631;28;20038;-70
2024/03/03 07:16:47;;;;;;;53.25;32.88;;;6.30;99.90;;;;;;4979056;28;20129;-70
2024/03/03 07:19:14;;;;;;;53.15;31.33;;;6.30;99.90;;;;;;4967856;28;20145;-69
2024/03/03 07:21:42;;;;;;;45.35;32.05;;;6.40;99.90;;;;;;4975424;28;20053;-69
2024/03/03 07:24:10;;;;;;;49.08;34.30;;;6.60;99.90;;;;;;4980334;28;20070;-69
2024/03/03 07:26:38;;;;;;;49.97;30.77;;;6.70;99.90;;;;;;4967789;28;20053;-70
2024/03/03 07:29:07;;;;;;;45.17;31.25;;;6.80;99.90;;;;;;4958679;28;20515;-69
2024/03/03 07:31:36;;;;;;;42.78;31.95;;;7.00;99.90;;;;;;4971241;28;20037;-69
2024/03/03 07:34:03;;;;;;;39.65;31.33;;;7.10;99.90;;;;;;4972730;28;20423;-69
2024/03/03 07:36:31;;;;;;;43.17;32.55;;;7.20;99.90;;;;;;4974624;28;20049;-69
2024/03/03 07:38:58;;;;;;;46.13;33.03;;;7.30;99.90;;;;;;4958912;28;20050;-69
2024/03/03 07:41:26;;;;;;;42.53;33.60;;;7.40;99.90;;;;;;4965459;28;20145;-71
2024/03/03 07:43:53;;;;;;;55.15;33.33;;;7.50;99.90;;;;;;4976282;28;20053;-69
2024/03/03 07:46:20;;;;;;;47.72;34.30;;;7.60;99.90;;;;;;4968234;28;20088;-69
2024/03/03 07:48:47;;;;;;;40.33;32.47;;;7.70;99.90;;;;;;4971419;28;20740;-70
2024/03/03 07:51:18;;;;;;;37.60;30.10;;;7.70;99.90;;;;;;4969116;28;20052;-70
2024/03/03 07:53:46;;;;;;;40.53;32.50;;;7.80;99.90;;;;;;4989092;28;20050;-70
2024/03/03 07:56:13;;;;;;;47.35;34.75;;;7.80;99.90;;;;;;4968910;28;20051;-68
2024/03/03 07:58:40;;;;;;;43.17;34.47;;;7.80;99.90;;;;;;4973618;28;20100;-70
2024/03/03 08:01:07;;;;;;;42.97;34.97;;;8.00;99.90;;;;;;4966780;28;20056;-68
2024/03/03 08:03:34;;;;;;;40.85;33.72;;;8.00;99.90;;;;;;4972547;28;20716;-70
2024/03/03 08:06:02;;;;;;;41.00;35.50;;;8.00;99.90;;;;;;4983458;28;20038;-70
2024/03/03 08:08:29;;;;;;;42.72;33.83;;;8.20;99.90;;;;;;4966788;28;20132;-70
2024/03/03 08:10:56;;;;;;;40.17;34.22;;;8.20;99.90;;;;;;4964933;28;20053;-70
2024/03/03 08:13:23;;;;;;;39.72;33.67;;;8.30;99.90;;;;;;4959438;28;21434;-69
2024/03/03 08:15:50;;;;;;;41.80;33.50;;;8.40;99.90;;;;;;4971654;28;20047;-69
2024/03/03 08:18:18;;;;;;;40.35;36.15;;;8.50;99.90;;;;;;4954085;28;20058;-68
2024/03/03 08:20:45;;;;;;;38.60;34.50;;;8.60;99.90;;;;;;4950818;28;20046;-69
2024/03/03 08:23:15;;;;;;;43.42;36.45;;;8.80;99.90;;;;;;4965748;28;20646;-70
2024/03/03 08:25:42;;;;;;;41.40;37.15;;;9.00;99.90;;;;;;4969603;28;20049;-69
2024/03/03 08:28:09;;;;;;;38.60;34.63;;;9.30;99.90;;;;;;4968667;28;20061;-68
2024/03/03 08:30:36;;;;;;;41.40;37.03;;;9.40;99.90;;;;;;4961755;28;20503;-71
2024/03/03 08:33:04;;;;;;;40.00;36.17;;;9.50;99.90;;;;;;4968564;28;20565;-71
2024/03/03 08:35:31;;;;;;;42.05;37.97;;;9.60;99.90;;;;;;4942953;28;20082;-68
2024/03/03 08:37:58;;;;;;;44.55;39.72;;;9.80;99.90;;;;;;4951120;28;20921;-70
2024/03/03 08:40:25;;;;;;;44.25;40.00;;;10.20;99.90;;;;;;4946118;28;20368;-70
2024/03/03 08:42:52;;;;;;;44.05;39.63;;;10.60;99.90;;;;;;4969854;28;20042;-70
2024/03/03 08:45:19;;;;;;;43.78;39.60;;;10.80;99.90;;;;;;4966588;28;20070;-69
2024/03/03 08:47:46;;;;;;;46.70;42.13;;;11.10;99.90;;;;;;4961535;28;20039;-69
2024/03/03 08:50:14;;;;;;;45.13;40.40;;;11.20;99.90;;;;;;4965575;28;20140;-71
2024/03/03 08:52:44;;;;;;;41.35;37.42;;;10.90;99.90;;;;;;4953393;28;20507;-71
2024/03/03 08:55:11;;;;;;;45.40;40.72;;;10.80;99.90;;;;;;4969568;28;20832;-70
2024/03/03 08:57:39;;;;;;;46.33;41.75;;;10.70;99.90;;;;;;4971061;28;20070;-71
2024/03/03 09:00:12;;;;;;;45.20;40.78;;;10.90;99.90;;;;;;4962522;28;20047;-72
2024/03/03 09:02:40;;;;;;;43.40;39.25;;;11.10;99.90;;;;;;4961374;28;20049;-70
2024/03/03 09:05:09;;;;;;;48.20;43.28;;;10.80;99.90;;;;;;4958587;28;20055;-69
2024/03/03 09:07:39;;;;;;;48.22;43.45;;;10.50;99.90;;;;;;4968151;28;20367;-71
2024/03/03 09:10:07;;;;;;;42.13;38.22;;;10.50;99.90;;;;;;4972231;28;20581;-70
2024/03/03 09:12:34;;;;;;;46.90;42.58;;;10.40;99.90;;;;;;4964848;28;20037;-70
2024/03/03 09:15:01;;;;;;;52.95;48.05;;;10.40;99.90;;;;;;4968216;28;20479;-71
2024/03/03 09:17:29;;;;;;;54.85;50.13;;;10.60;99.90;;;;;;4972642;28;20046;-71
2024/03/03 09:19:56;;;;;;;51.92;47.33;;;11.00;99.90;;;;;;4974390;28;20049;-70
2024/03/03 09:22:23;;;;;;;53.60;48.97;;;11.40;99.90;;;;;;4960789;28;20054;-70
2024/03/03 09:24:50;;;;;;;54.78;50.25;;;11.60;99.90;;;;;;4954655;28;20038;-72
2024/03/03 09:27:17;;;;;;;57.05;52.28;;;11.80;99.90;;;;;;4968059;28;20499;-70
2024/03/03 09:29:44;;;;;;;54.30;49.80;;;12.00;99.90;;;;;;4970321;28;20129;-71
2024/03/03 09:32:11;;;;;;;55.10;50.58;;;12.30;99.90;;;;;;4973034;28;20763;-70
2024/03/03 09:34:39;;;;;;;55.70;51.10;;;12.10;99.90;;;;;;4982233;28;20622;-71
2024/03/03 09:37:06;;;;;;;56.30;51.53;;;12.10;99.90;;;;;;4964490;28;20065;-71
2024/03/03 09:39:33;;;;;;;54.58;50.03;;;12.00;99.90;;;;;;4971261;28;20217;-71
2024/03/03 09:42:00;;;;;;;54.00;49.70;;;12.50;99.90;;;;;;4965792;28;20042;-71
2024/03/03 09:44:42;;;;;;;55.40;50.90;;;12.50;99.90;;;;;;4955717;28;20164;-71
2024/03/03 09:47:12;;;;;;;53.42;48.53;;;12.70;99.90;;;;;;4970148;28;20054;-72
2024/03/03 09:49:41;;;;;;;50.50;46.53;;;12.80;99.90;;;;;;4971522;28;20128;-70
2024/03/03 09:52:13;;;;;;;49.83;45.58;;;13.00;99.90;;;;;;4956523;28;20130;-70
2024/03/03 09:54:41;;;;;;;49.13;45.03;;;12.80;99.90;;;;;;4962691;28;20047;-71
2024/03/03 09:57:13;;;;;;;51.10;47.03;;;12.60;99.90;;;;;;4962089;28;20047;-69
2024/03/03 09:59:40;;;;;;;48.90;44.90;;;12.90;99.90;;;;;;4966916;28;20625;-73
2024/03/03 10:02:15;;;;;;;55.17;50.67;;;12.70;99.90;;;;;;4960808;28;20061;-71
2024/03/03 10:04:47;;;;;;;54.78;50.17;;;12.90;99.90;;;;;;4937517;28;20054;-72
2024/03/03 10:07:22;;;;;;;50.35;46.05;;;13.20;99.90;;;;;;4960172;28;20061;-71
2024/03/03 10:10:13;;;;;;;53.95;49.42;;;13.10;99.90;;;;;;4956925;28;20630;-71
2024/03/03 10:12:43;;;;;;;53.05;48.22;;;13.10;99.90;;;;;;4958613;28;20045;-70
2024/03/03 10:15:13;;;;;;;49.35;45.15;;;13.00;99.90;;;;;;4964594;28;20166;-71
2024/03/03 10:17:40;;;;;;;51.72;47.13;;;13.00;99.90;;;;;;4964185;28;20078;-72
2024/03/03 10:20:08;;;;;;;54.75;50.33;;;13.10;99.90;;;;;;4961969;28;20412;-71
2024/03/03 10:22:35;;;;;;;49.05;44.97;;;13.20;99.90;;;;;;4964217;28;20108;-70
2024/03/03 10:25:15;;;;;;;52.13;47.70;;;12.90;99.90;;;;;;4968658;28;20058;-71
2024/03/03 10:27:47;;;;;;;50.92;46.72;;;12.50;99.90;;;;;;4963414;28;20054;-71
2024/03/03 10:30:22;;;;;;;51.60;47.38;;;12.60;99.90;;;;;;4965062;28;20146;-71
2024/03/03 10:32:50;;;;;;;52.75;48.47;;;12.80;99.90;;;;;;4986046;28;20061;-70
2024/03/03 10:35:20;;;;;;;54.15;49.78;;;12.60;99.90;;;;;;4959711;28;20055;-69
2024/03/03 10:37:48;;;;;;;53.30;48.67;;;12.30;99.90;;;;;;4967359;28;20054;-71
2024/03/03 10:40:15;;;;;;;54.30;49.95;;;12.50;99.90;;;;;;4964130;28;20595;-70
2024/03/03 10:42:43;;;;;;;51.30;47.20;;;12.50;99.90;;;;;;4967159;28;20585;-71
2024/03/03 10:45:10;;;;;;;55.45;51.13;;;12.50;99.90;;;;;;4968959;28;20050;-72
2024/03/03 10:47:38;;;;;;;55.67;51.38;;;12.60;99.90;;;;;;4963400;28;21086;-71
2024/03/03 10:50:08;;;;;;;55.03;50.65;;;12.90;99.90;;;;;;4968994;28;20057;-72
2024/03/03 10:52:39;;;;;;;56.50;52.20;;;13.20;99.90;;;;;;4946070;28;20055;-72
2024/03/03 10:55:09;;;;;;;55.45;50.75;;;13.60;99.90;;;;;;4948859;28;20046;-72
2024/03/03 10:57:37;;;;;;;55.00;50.80;;;13.60;99.90;;;;;;4960569;28;20692;-72
2024/03/03 11:00:06;;;;;;;55.45;50.92;;;13.80;99.90;;;;;;4969183;28;20134;-72
2024/03/03 11:02:37;;;;;;;53.50;49.03;;;14.00;99.90;;;;;;4964168;28;20054;-72
2024/03/03 11:05:04;;;;;;;53.25;48.90;;;14.10;99.90;;;;;;4962730;28;20704;-72
2024/03/03 11:07:33;;;;;;;48.53;44.40;;;14.20;99.90;;;;;;4967062;28;21052;-71
2024/03/03 11:10:02;;;;;;;57.25;52.83;;;14.10;99.90;;;;;;4970993;28;20069;-70
2024/03/03 11:12:35;;;;;;;54.13;50.15;;;14.30;99.90;;;;;;4964123;28;20043;-72
2024/03/03 11:15:04;;;;;;;53.20;49.10;;;14.30;99.90;;;;;;4972471;28;20125;-71
2024/03/03 11:17:40;;;;;;;56.00;52.00;;;14.10;99.90;;;;;;4966282;28;20487;-70
2024/03/03 11:20:17;;;;;;;56.47;52.45;;;14.00;99.90;;;;;;4969153;28;20051;-70
2024/03/03 11:22:55;;;;;;;55.50;51.08;;;13.60;99.90;;;;;;4973680;28;20073;-71
2024/03/03 11:25:27;;;;;;;55.63;51.22;;;13.70;99.90;;;;;;4972414;28;20050;-69
2024/03/03 11:27:58;;;;;;;56.25;51.95;;;13.90;99.90;;;;;;4955943;28;20081;-72
2024/03/03 11:30:28;;;;;;;55.47;51.47;;;13.60;99.90;;;;;;4965007;28;20051;-69
2024/03/03 11:32:56;;;;;;;55.10;50.80;;;14.00;99.90;;;;;;4974940;28;20145;-72
2024/03/03 11:35:23;;;;;;;53.85;49.97;;;14.30;99.90;;;;;;4945988;28;20118;-71
2024/03/03 11:37:50;;;;;;;55.25;50.97;;;14.00;99.90;;;;;;4974352;28;20057;-70
2024/03/03 11:40:18;;;;;;;53.70;49.30;;;14.00;99.90;;;;;;4950127;28;20527;-72
2024/03/03 11:42:47;;;;;;;52.13;48.15;;;14.10;99.90;;;;;;4971244;28;20045;-72
2024/03/03 11:45:14;;;;;;;53.60;49.38;;;14.50;99.90;;;;;;4969841;28;20065;-71
2024/03/03 11:47:47;;;;;;;53.92;49.70;;;14.70;99.90;;;;;;4979394;28;20277;-70
2024/03/03 11:50:22;;;;;;;53.10;49.15;;;14.60;99.90;;;;;;4981361;28;20046;-71
2024/03/03 11:52:52;;;;;;;53.28;49.35;;;14.40;99.90;;;;;;4973596;28;20050;-70
2024/03/03 11:55:25;;;;;;;55.85;51.58;;;14.20;99.90;;;;;;4968965;28;20600;-70
2024/03/03 11:57:55;;;;;;;55.25;51.17;;;14.30;99.90;;;;;;5001344;28;20108;-72
2024/03/03 12:00:27;;;;;;;54.63;50.45;;;14.40;99.90;;;;;;4970724;28;20512;-70
2024/03/03 12:02:57;;;;;;;55.63;51.50;;;14.30;99.90;;;;;;4974340;28;20051;-71
2024/03/03 12:05:25;;;;;;;56.60;52.47;;;14.40;99.90;;;;;;4956201;28;20042;-70
2024/03/03 12:07:54;;;;;;;55.00;51.13;;;14.70;99.90;;;;;;4958816;28;20072;-72
2024/03/03 12:10:26;;;;;;;58.67;54.13;;;14.90;99.90;;;;;;4970942;28;20124;-72
2024/03/03 12:12:54;;;;;;;61.50;56.92;;;15.00;99.90;;;;;;4963827;28;20070;-70
2024/03/03 12:15:26;;;;;;;59.85;55.25;;;15.10;99.90;;;;;;4965189;28;20050;-71
2024/03/03 12:17:56;;;;;;;60.25;55.85;;;14.90;99.90;;;;;;4945339;28;20171;-72
2024/03/03 12:20:25;;;;;;;61.50;56.85;;;14.50;99.90;;;;;;4940741;28;20491;-69
2024/03/03 12:22:53;;;;;;;61.00;56.65;;;14.80;99.90;;;;;;4960628;28;20782;-71
2024/03/03 12:25:22;;;;;;;60.25;55.88;;;14.90;99.90;;;;;;4957716;28;20065;-70
2024/03/03 12:27:54;;;;;;;60.92;56.38;;;15.00;99.90;;;;;;4944171;28;21301;-71
2024/03/03 12:30:26;;;;;;;62.65;58.08;;;15.00;99.90;;;;;;4951353;28;20763;-71
2024/03/03 12:32:53;;;;;;;61.05;56.75;;;14.70;99.90;;;;;;4954556;28;20047;-71
2024/03/03 12:35:25;;;;;;;63.70;59.30;;;15.00;99.90;;;;;;4949843;28;20793;-69
2024/03/03 12:37:53;;;;;;;62.22;57.97;;;14.90;99.90;;;;;;4934482;28;20059;-71